Time;durP1;ratioP1;P1;durP2;ratioP2;P2;SDS_P1;SDS_P2;PMS_P1;PMS_P2;Temp;Humidity;BMP_temperature;BMP_pressure;BME280_temperature;BME280_humidity;BME280_pressure;Samples;Min_cycle;Max_cycle;Signal;HPM_P1;HPM_P2
2021/04/07 00:01:02;;;;;;;8.57;1.98;;;;;;;0.90;75.22;101751.56;5041879;28;20172;-74
2021/04/07 00:03:30;;;;;;;6.95;2.10;;;;;;;0.88;75.17;101747.09;5035857;28;20098;-73
2021/04/07 00:05:56;;;;;;;6.55;1.90;;;;;;;0.90;74.47;101755.91;5041293;28;20068;-74
2021/04/07 00:08:26;;;;;;;6.97;1.88;;;;;;;0.97;73.68;101763.09;5035031;28;20127;-73
2021/04/07 00:10:53;;;;;;;8.48;2.00;;;;;;;1.06;72.06;101757.16;5041581;28;20061;-74
2021/04/07 00:13:21;;;;;;;11.38;1.92;;;;;;;1.14;72.14;101752.03;5037961;28;20076;-74
2021/04/07 00:15:48;;;;;;;5.90;1.70;;;;;;;1.08;72.89;101758.06;5043220;28;20151;-74
2021/04/07 00:18:15;;;;;;;3.20;1.50;;;;;;;1.04;74.39;101762.38;5035164;28;20349;-74
2021/04/07 00:20:43;;;;;;;7.93;1.92;;;;;;;0.91;75.03;101745.44;5042746;28;20148;-74
2021/04/07 00:23:10;;;;;;;5.30;1.73;;;;;;;0.83;75.62;101747.00;5037128;28;20061;-74
2021/04/07 00:25:37;;;;;;;5.38;1.80;;;;;;;0.79;75.12;101742.53;5040080;28;20151;-73
2021/04/07 00:28:06;;;;;;;5.82;1.55;;;;;;;0.69;74.64;101733.56;5037005;28;20069;-73
2021/04/07 00:30:35;;;;;;;3.90;1.40;;;;;;;0.71;73.96;101728.34;5038689;28;20053;-73
2021/04/07 00:33:03;;;;;;;6.28;2.05;;;;;;;0.68;73.75;101725.63;5037915;28;20064;-74
2021/04/07 00:35:30;;;;;;;8.15;1.90;;;;;;;0.67;73.50;101716.88;5039163;28;20068;-73
2021/04/07 00:37:58;;;;;;;10.40;1.98;;;;;;;0.68;73.08;101720.38;5040985;28;20499;-72
2021/04/07 00:40:25;;;;;;;6.05;1.33;;;;;;;0.82;71.87;101725.94;5039826;28;20056;-73
2021/04/07 00:42:53;;;;;;;5.78;1.92;;;;;;;0.88;70.86;101720.81;5042730;28;20064;-73
2021/04/07 00:45:22;;;;;;;6.25;1.83;;;;;;;0.99;71.24;101721.97;5037455;28;20064;-73
2021/04/07 00:47:49;;;;;;;4.70;1.77;;;;;;;1.02;71.82;101723.75;5039351;28;20064;-73
2021/04/07 00:50:17;;;;;;;13.05;2.42;;;;;;;1.11;72.96;101719.59;5035863;28;20152;-73
2021/04/07 00:52:44;;;;;;;9.40;2.63;;;;;;;1.14;73.33;101717.88;5050446;28;20064;-73
2021/04/07 00:55:13;;;;;;;12.02;2.58;;;;;;;1.22;72.75;101721.53;5035723;28;20065;-73
2021/04/07 00:57:41;;;;;;;12.82;3.45;;;;;;;1.21;72.95;101725.00;5041096;28;20056;-73
2021/04/07 01:00:09;;;;;;;7.97;2.42;;;;;;;1.27;72.70;101723.41;5033430;28;20061;-72
2021/04/07 01:02:37;;;;;;;7.35;2.22;;;;;;;1.27;73.54;101765.47;5041613;28;20056;-72
2021/04/07 01:05:06;;;;;;;6.53;2.08;;;;;;;1.08;74.65;101751.06;5034849;28;20691;-72
2021/04/07 01:07:33;;;;;;;3.80;1.63;;;;;;;0.83;75.55;101751.38;5039582;28;20068;-72
2021/04/07 01:10:00;;;;;;;6.97;1.52;;;;;;;0.65;77.13;101749.22;5035176;28;20057;-74
2021/04/07 01:12:28;;;;;;;5.47;1.67;;;;;;;0.59;77.27;101742.06;5040626;28;20093;-72
2021/04/07 01:14:55;;;;;;;5.05;1.45;;;;;;;0.60;77.36;101740.34;5041058;28;20352;-72
2021/04/07 01:17:22;;;;;;;2.17;1.15;;;;;;;0.57;77.08;101740.28;5036852;28;20061;-72
2021/04/07 01:19:48;;;;;;;8.95;2.13;;;;;;;0.52;77.47;101734.91;5035670;28;20487;-73
2021/04/07 01:22:18;;;;;;;4.72;1.50;;;;;;;0.49;77.39;101732.22;5037665;28;20071;-72
2021/04/07 01:24:47;;;;;;;3.65;1.63;;;;;;;0.40;78.58;101737.25;5037715;28;20053;-73
2021/04/07 01:27:14;;;;;;;9.27;2.08;;;;;;;0.48;78.43;101738.34;5037381;28;20061;-73
2021/04/07 01:29:41;;;;;;;4.43;1.50;;;;;;;0.44;78.80;101733.84;5039115;28;20061;-73
2021/04/07 01:32:08;;;;;;;6.07;2.05;;;;;;;0.52;78.52;101722.66;5037992;28;20087;-73
2021/04/07 01:34:43;;;;;;;8.25;1.85;;;;;;;0.51;78.47;101718.28;5043002;28;20069;-73
2021/04/07 01:37:12;;;;;;;8.15;1.80;;;;;;;0.55;78.13;101719.22;5040907;28;20459;-73
2021/04/07 01:39:39;;;;;;;6.65;2.00;;;;;;;0.49;79.10;101711.19;5040931;28;20065;-73
2021/04/07 01:42:07;;;;;;;6.30;1.58;;;;;;;0.54;78.92;101712.19;5038365;28;20487;-73
2021/04/07 01:44:36;;;;;;;6.63;1.90;;;;;;;0.58;78.39;101707.88;5056735;28;20621;-73
2021/04/07 01:47:05;;;;;;;6.93;1.83;;;;;;;0.61;78.26;101707.97;5038834;28;20444;-72
2021/04/07 01:49:32;;;;;;;5.10;1.75;;;;;;;0.64;78.64;101702.78;5041489;28;20068;-73
2021/04/07 01:52:00;;;;;;;10.13;2.45;;;;;;;0.83;76.50;101697.06;5039495;28;20065;-74
2021/04/07 01:54:27;;;;;;;5.55;1.63;;;;;;;1.00;74.63;101686.91;5041725;28;20060;-75
2021/04/07 01:56:55;;;;;;;8.02;2.30;;;;;;;1.04;74.73;101693.13;5042807;28;20061;-74
2021/04/07 01:59:25;;;;;;;5.47;1.80;;;;;;;1.25;72.22;101674.28;5041828;28;20049;-74
2021/04/07 02:01:53;;;;;;;7.15;1.92;;;;;;;1.65;66.54;101677.63;5043810;28;20056;-73
2021/04/07 02:04:21;;;;;;;17.08;2.55;;;;;;;1.75;65.09;101676.06;5040815;28;20056;-73
2021/04/07 02:06:54;;;;;;;;;;;;;;;1.96;63.17;101667.63;5043937;28;20064;-73
2021/04/07 02:09:21;;;;;;;7.60;2.47;;;;;;;1.97;63.35;101669.44;5038888;28;19994;-73
2021/04/07 02:11:50;;;;;;;6.18;2.15;;;;;;;1.96;63.39;101672.91;5042707;28;20073;-73
2021/04/07 02:14:18;;;;;;;11.98;2.13;;;;;;;1.98;63.60;101671.22;5039759;28;20068;-74
2021/04/07 02:16:50;;;;;;;9.35;2.45;;;;;;;2.18;64.51;101666.25;5042112;28;20056;-73
2021/04/07 02:19:18;;;;;;;9.13;2.15;;;;;;;2.17;65.25;101667.13;5038416;28;20152;-74
2021/04/07 02:21:44;;;;;;;6.35;2.58;;;;;;;2.18;65.51;101661.88;5042272;28;20057;-73
2021/04/07 02:24:11;;;;;;;7.90;2.10;;;;;;;2.31;64.34;101669.97;5039643;28;20065;-74
2021/04/07 02:26:38;;;;;;;6.72;1.90;;;;;;;2.31;65.45;101664.69;5045668;28;20061;-76
2021/04/07 02:29:05;;;;;;;3.38;1.75;;;;;;;2.24;65.72;101661.97;5040979;28;20458;-76
2021/04/07 02:31:31;;;;;;;10.82;2.55;;;;;;;2.21;65.85;101656.66;5046150;28;20116;-75
2021/04/07 02:33:59;;;;;;;13.27;2.60;;;;;;;2.24;65.30;101655.81;5041247;28;20151;-75
2021/04/07 02:36:26;;;;;;;11.93;2.47;;;;;;;2.30;64.88;101665.53;5044405;28;20087;-75
2021/04/07 02:38:52;;;;;;;5.72;1.80;;;;;;;2.26;65.88;101663.75;5039114;28;20072;-75
2021/04/07 02:41:19;;;;;;;11.80;2.97;;;;;;;2.31;68.43;101669.97;5042992;28;20069;-75
2021/04/07 02:43:46;;;;;;;6.75;2.17;;;;;;;2.19;70.10;101671.53;5043544;28;20459;-76
2021/04/07 02:46:13;;;;;;;9.63;3.17;;;;;;;2.04;71.93;101690.63;5039739;28;20069;-77
2021/04/07 02:48:39;;;;;;;8.30;2.35;;;;;;;1.89;74.19;101678.94;5041068;28;20096;-77
2021/04/07 02:51:08;;;;;;;11.25;2.42;;;;;;;1.80;74.95;101704.22;5044387;28;20052;-76
2021/04/07 02:53:35;;;;;;;8.10;2.05;;;;;;;1.66;77.00;101688.19;5043142;28;20072;-76
2021/04/07 02:56:02;;;;;;;10.50;2.50;;;;;;;1.52;78.62;101699.34;5041309;28;20171;-76
2021/04/07 02:58:29;;;;;;;10.00;2.65;;;;;;;1.42;79.74;101696.53;5042889;28;20160;-76
2021/04/07 03:00:56;;;;;;;9.45;3.00;;;;;;;1.29;80.92;101705.03;5039977;28;20522;-76
2021/04/07 03:03:23;;;;;;;10.27;2.85;;;;;;;1.18;82.05;101710.09;5040500;28;20068;-75
2021/04/07 03:05:50;;;;;;;9.85;2.45;;;;;;;0.87;83.84;101725.22;5040766;28;20061;-75
2021/04/07 03:08:17;;;;;;;8.80;2.50;;;;;;;0.71;84.61;101705.56;5039250;28;20056;-75
2021/04/07 03:10:44;;;;;;;7.07;3.03;;;;;;;0.62;85.10;101702.75;5039155;28;20287;-75
2021/04/07 03:13:11;;;;;;;10.00;2.42;;;;;;;0.61;85.32;101700.97;5041806;28;20452;-75
2021/04/07 03:15:38;;;;;;;12.73;3.63;;;;;;;0.63;85.81;101696.66;5039254;28;20069;-76
2021/04/07 03:18:05;;;;;;;7.50;2.35;;;;;;;0.64;85.76;101710.66;5041370;28;20061;-75
2021/04/07 03:20:32;;;;;;;11.27;3.05;;;;;;;0.63;85.95;101704.53;5042039;28;20053;-74
2021/04/07 03:22:59;;;;;;;12.82;2.40;;;;;;;0.66;85.75;101707.22;5042686;28;20060;-76
2021/04/07 03:25:26;;;;;;;7.72;2.00;;;;;;;0.42;85.78;101707.53;5043631;28;20075;-75
2021/04/07 03:27:53;;;;;;;4.47;2.20;;;;;;;0.33;86.73;101694.22;5044173;28;20478;-77
2021/04/07 03:30:21;;;;;;;10.70;3.35;;;;;;;0.40;86.84;101718.88;5041632;28;20052;-77
2021/04/07 03:32:49;;;;;;;3.88;1.83;;;;;;;0.41;86.52;101689.13;5041848;28;20164;-77
2021/04/07 03:35:15;;;;;;;5.38;2.28;;;;;;;0.44;86.21;101694.44;5045673;28;20060;-77
2021/04/07 03:37:45;;;;;;;5.35;1.75;;;;;;;0.47;86.29;101684.91;5043074;28;20092;-76
2021/04/07 03:40:12;;;;;;;5.10;2.22;;;;;;;0.48;86.05;101688.44;5060144;28;20121;-77
2021/04/07 03:42:42;;;;;;;4.10;1.98;;;;;;;0.48;86.30;101677.94;5039280;28;20060;-76
2021/04/07 03:45:13;;;;;;;5.05;1.80;;;;;;;0.46;86.71;101684.84;5060610;28;20388;-77
2021/04/07 03:47:40;;;;;;;6.40;2.50;;;;;;;0.41;86.71;101684.78;5044063;28;20203;-77
2021/04/07 03:50:09;;;;;;;5.40;1.98;;;;;;;0.46;86.45;101691.03;5044340;28;20084;-76
2021/04/07 03:52:36;;;;;;;6.22;1.77;;;;;;;0.43;87.06;101671.69;5041042;28;20106;-73
2021/04/07 03:55:04;;;;;;;3.65;1.77;;;;;;;0.40;86.66;101651.47;5037804;28;20363;-74
2021/04/07 03:57:31;;;;;;;4.25;1.95;;;;;;;0.49;85.49;101658.66;5040491;28;20084;-72
2021/04/07 03:59:59;;;;;;;19.98;3.00;;;;;;;0.48;86.44;101662.16;5039113;28;20057;-73
2021/04/07 04:02:25;;;;;;;10.13;2.30;;;;;;;0.49;86.79;101645.53;5042968;28;20143;-75
2021/04/07 04:04:52;;;;;;;7.00;2.25;;;;;;;0.58;86.96;101653.66;5036904;28;20068;-74
2021/04/07 04:07:19;;;;;;;9.20;2.55;;;;;;;0.58;87.09;101655.34;5044110;28;20060;-74
2021/04/07 04:09:46;;;;;;;10.93;3.17;;;;;;;0.55;87.25;101661.44;5034745;28;20061;-73
2021/04/07 04:12:12;;;;;;;7.20;3.10;;;;;;;0.61;86.46;101634.41;5037811;28;20063;-73
2021/04/07 04:14:39;;;;;;;9.32;2.70;;;;;;;0.57;86.47;101640.47;5042881;28;20057;-77
2021/04/07 04:17:07;;;;;;;8.23;2.00;;;;;;;0.58;86.54;101645.75;5051618;28;20234;-78
2021/04/07 04:19:34;;;;;;;8.82;2.55;;;;;;;0.62;86.87;101638.84;5044875;28;20102;-76
2021/04/07 04:22:04;;;;;;;9.15;2.58;;;;;;;0.62;86.70;101631.81;5046950;28;20394;-77
2021/04/07 04:24:31;;;;;;;6.43;2.70;;;;;;;0.64;86.59;101632.75;5041331;28;20092;-76
2021/04/07 04:26:58;;;;;;;12.18;3.63;;;;;;;0.63;86.78;101628.34;5033184;28;20075;-72
2021/04/07 04:29:24;;;;;;;15.25;3.33;;;;;;;0.54;87.23;101644.78;5036279;28;20057;-73
2021/04/07 04:31:52;;;;;;;9.20;2.75;;;;;;;0.48;87.39;101634.16;5040677;28;20060;-73
2021/04/07 04:34:19;;;;;;;8.30;3.30;;;;;;;0.48;87.58;101638.53;5035849;28;20494;-72
2021/04/07 04:36:46;;;;;;;14.23;3.70;;;;;;;0.46;87.82;101643.75;5038066;28;20072;-72
2021/04/07 04:39:13;;;;;;;16.00;4.63;;;;;;;0.42;87.85;101652.41;5042039;28;20057;-75
2021/04/07 04:41:39;;;;;;;10.43;3.38;;;;;;;0.40;88.54;101648.84;5036215;28;20163;-73
2021/04/07 04:44:06;;;;;;;15.70;3.75;;;;;;;0.49;88.39;101641.16;5040129;28;20071;-72
2021/04/07 04:46:33;;;;;;;7.88;3.65;;;;;;;0.49;88.54;101629.78;5034077;28;20053;-72
2021/04/07 04:49:00;;;;;;;13.65;4.47;;;;;;;0.51;88.21;101638.56;5041824;28;20065;-72
2021/04/07 04:51:28;;;;;;;10.77;4.13;;;;;;;0.55;88.67;101629.94;5034821;28;20072;-72
2021/04/07 04:53:55;;;;;;;12.75;3.80;;;;;;;0.60;88.63;101622.16;5039733;28;20056;-72
2021/04/07 04:56:21;;;;;;;13.65;3.40;;;;;;;0.80;89.44;101622.53;5033305;28;20061;-72
2021/04/07 04:58:48;;;;;;;15.88;3.65;;;;;;;1.15;88.36;101603.97;5040563;28;20065;-72
2021/04/07 05:01:15;;;;;;;13.23;3.35;;;;;;;1.28;88.56;101612.13;5034451;28;20056;-72
2021/04/07 05:03:42;;;;;;;10.90;3.47;;;;;;;1.60;87.90;101613.53;5042723;28;20112;-72
2021/04/07 05:06:09;;;;;;;15.93;3.63;;;;;;;1.85;87.20;101613.06;5034600;28;20839;-72
2021/04/07 05:08:37;;;;;;;9.93;3.45;;;;;;;1.84;87.95;101620.97;5046674;28;20061;-72
2021/04/07 05:11:04;;;;;;;15.80;4.45;;;;;;;2.01;87.42;101627.38;5038452;28;20099;-72
2021/04/07 05:13:31;;;;;;;12.63;3.30;;;;;;;2.16;87.62;101639.91;5045504;28;20155;-72
2021/04/07 05:15:58;;;;;;;25.13;3.83;;;;;;;2.27;86.59;101628.66;5042596;28;20069;-72
2021/04/07 05:18:25;;;;;;;19.13;3.88;;;;;;;2.35;86.97;101627.00;5039839;28;20064;-72
2021/04/07 05:20:52;;;;;;;15.15;3.63;;;;;;;2.31;87.25;101638.34;5042809;28;20048;-73
2021/04/07 05:23:18;;;;;;;17.70;3.58;;;;;;;2.54;86.34;101634.31;5041779;28;20059;-72
2021/04/07 05:25:46;;;;;;;16.35;3.50;;;;;;;2.27;87.70;101647.09;5043488;28;20331;-72
2021/04/07 05:28:13;;;;;;;12.57;3.85;;;;;;;2.34;87.71;101627.88;5039889;28;20057;-75
2021/04/07 05:33:26;;;;;;;18.70;3.83;;;;;;;2.51;87.74;101628.13;5041640;28;20451;-72
2021/04/07 05:35:55;;;;;;;19.52;4.47;;;;;;;2.65;87.21;101641.47;5041961;28;20106;-72
2021/04/07 05:38:23;;;;;;;23.92;4.95;;;;;;;2.65;87.51;101650.25;5041080;28;20068;-71
2021/04/07 05:40:51;;;;;;;22.70;4.45;;;;;;;2.68;87.35;101639.75;5043755;28;20135;-72
2021/04/07 05:43:18;;;;;;;19.75;4.70;;;;;;;2.79;87.12;101653.06;5041881;28;20069;-72
2021/04/07 05:45:45;;;;;;;21.95;5.25;;;;;;;2.82;86.93;101652.22;5041122;28;21465;-71
2021/04/07 05:48:12;;;;;;;15.02;4.07;;;;;;;2.86;87.00;101656.66;5039935;28;20094;-71
2021/04/07 05:50:39;;;;;;;28.65;6.07;;;;;;;2.91;86.73;101647.06;5041816;28;20064;-71
2021/04/07 05:53:07;;;;;;;30.08;4.85;;;;;;;2.94;85.97;101639.19;5040869;28;20480;-71
2021/04/07 05:55:34;;;;;;;19.23;5.45;;;;;;;3.01;86.16;101663.88;5041023;28;20086;-72
2021/04/07 05:58:04;;;;;;;38.95;5.65;;;;;;;3.05;85.38;101655.13;5044636;28;20056;-72
2021/04/07 06:00:31;;;;;;;21.70;4.57;;;;;;;3.03;85.41;101667.41;5039292;28;20061;-71
2021/04/07 06:02:58;;;;;;;15.95;4.57;;;;;;;3.01;85.93;101672.69;5043977;28;20071;-71
2021/04/07 06:05:27;;;;;;;20.42;6.15;;;;;;;3.04;86.03;101675.34;5040452;28;20065;-71
2021/04/07 06:07:54;;;;;;;22.83;5.20;;;;;;;3.03;86.45;101685.88;5040875;28;20065;-70
2021/04/07 06:10:21;;;;;;;21.05;4.85;;;;;;;3.08;86.05;101695.66;5039896;28;20060;-72
2021/04/07 06:12:48;;;;;;;16.77;3.85;;;;;;;3.05;86.87;101703.50;5043065;28;20152;-70
2021/04/07 06:15:16;;;;;;;18.20;5.05;;;;;;;3.17;85.70;101706.28;5039659;28;20057;-70
2021/04/07 06:17:52;;;;;;;21.55;4.70;;;;;;;3.16;86.05;101707.16;5039975;28;20067;-70
2021/04/07 06:20:19;;;;;;;15.20;4.40;;;;;;;3.18;86.02;101712.44;5040315;28;20135;-70
2021/04/07 06:22:46;;;;;;;16.30;4.38;;;;;;;3.20;85.76;101718.63;5040688;28;20060;-70
2021/04/07 06:25:14;;;;;;;26.60;4.35;;;;;;;3.17;86.18;101721.25;5040235;28;20087;-71
2021/04/07 06:27:41;;;;;;;23.52;4.70;;;;;;;3.26;85.26;101726.63;5040734;28;20079;-71
2021/04/07 06:30:09;;;;;;;24.75;5.82;;;;;;;3.32;85.45;101739.91;5041172;28;20144;-71
2021/04/07 06:32:37;;;;;;;30.33;5.15;;;;;;;3.30;85.47;101728.44;5037504;28;20079;-72
2021/04/07 06:35:05;;;;;;;18.48;5.45;;;;;;;3.36;85.71;101746.09;5040207;28;20067;-72
2021/04/07 06:37:32;;;;;;;35.42;8.40;;;;;;;3.43;85.37;101747.06;5037419;28;20053;-72
2021/04/07 06:39:59;;;;;;;17.45;4.50;;;;;;;3.41;85.72;101748.78;5043764;28;20312;-72
2021/04/07 06:42:26;;;;;;;25.38;5.38;;;;;;;3.40;85.54;101762.84;5036980;28;20068;-71
2021/04/07 06:44:57;;;;;;;25.15;5.07;;;;;;;3.48;83.90;101764.69;5044430;28;20092;-71
2021/04/07 06:47:25;;;;;;;22.58;4.38;;;;;;;3.52;83.03;101757.69;5036751;28;20064;-71
2021/04/07 06:49:53;;;;;;;26.63;7.50;;;;;;;3.61;82.27;101767.47;5043069;28;20057;-71
2021/04/07 06:52:22;;;;;;;16.73;4.05;;;;;;;3.60;82.61;101771.88;5038464;28;20905;-71
2021/04/07 06:54:52;;;;;;;18.27;4.07;;;;;;;3.62;82.76;101770.13;5044397;28;20110;-72
2021/04/07 06:57:20;;;;;;;26.00;4.68;;;;;;;3.66;82.97;101787.81;5041857;28;20509;-71
2021/04/07 06:59:48;;;;;;;18.60;4.78;;;;;;;3.75;81.70;101768.53;5043151;28;20052;-70
2021/04/07 07:02:16;;;;;;;20.60;4.40;;;;;;;3.72;81.76;101776.41;5038723;28;20863;-70
2021/04/07 07:04:44;;;;;;;19.15;4.85;;;;;;;3.81;80.91;101794.97;5043268;28;20064;-70
2021/04/07 07:07:12;;;;;;;21.48;4.85;;;;;;;3.79;81.43;101809.94;5040545;28;20056;-70
2021/04/07 07:09:39;;;;;;;20.08;4.63;;;;;;;3.84;81.04;101802.06;5041724;28;20060;-71
2021/04/07 07:12:07;;;;;;;20.50;4.35;;;;;;;3.80;81.13;101810.81;5041137;28;20060;-71
2021/04/07 07:14:34;;;;;;;29.60;5.70;;;;;;;3.82;80.80;101820.53;5042314;28;20057;-71
2021/04/07 07:17:01;;;;;;;20.75;4.32;;;;;;;3.79;81.35;101825.78;5038524;28;20048;-72
2021/04/07 07:19:30;;;;;;;14.90;4.10;;;;;;;3.73;82.41;101815.16;5040235;28;20107;-71
2021/04/07 07:21:58;;;;;;;16.92;4.80;;;;;;;3.85;79.96;101811.78;5040374;28;20077;-71
2021/04/07 07:24:28;;;;;;;22.15;5.13;;;;;;;3.93;79.29;101823.28;5038189;28;20061;-71
2021/04/07 07:26:55;;;;;;;15.05;4.60;;;;;;;3.95;79.04;101825.94;5043457;28;20056;-72
2021/04/07 07:29:26;;;;;;;22.15;4.05;;;;;;;3.96;79.09;101838.28;5037189;28;20493;-71
2021/04/07 07:32:00;;;;;;;16.88;4.18;;;;;;;4.00;78.32;101848.00;5044566;28;20329;-71
2021/04/07 07:34:28;;;;;;;15.57;3.08;;;;;;;4.03;78.91;101840.13;5034435;28;20057;-71
2021/04/07 07:36:56;;;;;;;19.02;4.47;;;;;;;4.07;77.78;101849.84;5044427;28;20336;-71
2021/04/07 07:39:25;;;;;;;19.73;5.22;;;;;;;4.10;77.90;101853.44;5036840;28;20053;-70
2021/04/07 07:41:57;;;;;;;17.40;4.18;;;;;;;4.15;76.85;101863.16;5044234;28;20272;-70
2021/04/07 07:44:24;;;;;;;20.83;4.35;;;;;;;4.14;75.80;101858.72;5037790;28;20092;-69
2021/04/07 07:46:59;;;;;;;16.80;4.95;;;;;;;4.13;75.61;101862.25;5042760;28;20063;-70
2021/04/07 07:49:26;;;;;;;22.25;4.22;;;;;;;4.15;75.26;101865.78;5036699;28;20114;-72
2021/04/07 07:51:53;;;;;;;16.85;3.95;;;;;;;4.18;76.39;101871.09;5045638;28;20120;-71
2021/04/07 07:54:21;;;;;;;15.35;3.80;;;;;;;4.17;75.39;101867.59;5035807;28;20060;-70
2021/04/07 07:56:49;;;;;;;11.80;3.20;;;;;;;4.20;74.91;101878.16;5043929;28;20073;-70
2021/04/07 07:59:28;;;;;;;19.45;4.80;;;;;;;4.27;74.93;101880.03;5034196;28;20988;-69
2021/04/07 08:01:55;;;;;;;13.00;3.53;;;;;;;4.30;76.33;101871.22;5042186;28;20060;-69
2021/04/07 08:04:24;;;;;;;20.65;4.20;;;;;;;4.40;75.43;101891.59;5031900;28;20070;-69
2021/04/07 08:06:51;;;;;;;17.70;3.97;;;;;;;4.43;73.39;101896.03;5044355;28;20433;-71
2021/04/07 08:09:18;;;;;;;16.15;3.38;;;;;;;4.47;74.56;101898.72;5039879;28;20451;-69
2021/04/07 08:11:46;;;;;;;14.02;3.95;;;;;;;4.51;74.90;101904.03;5039725;28;20056;-69
2021/04/07 08:14:15;;;;;;;18.45;4.82;;;;;;;4.56;74.14;101897.03;5037062;28;20068;-69
2021/04/07 08:16:44;;;;;;;14.02;3.28;;;;;;;4.60;72.73;101905.00;5033722;28;20065;-69
2021/04/07 08:19:11;;;;;;;16.15;4.93;;;;;;;4.67;72.32;101895.38;5037045;28;20273;-69
2021/04/07 08:21:40;;;;;;;17.60;4.18;;;;;;;4.74;72.47;101905.13;5034769;28;20049;-69
2021/04/07 08:24:10;;;;;;;14.95;3.80;;;;;;;4.85;72.53;101911.41;5032411;28;20066;-69
2021/04/07 08:26:38;;;;;;;10.88;3.25;;;;;;;4.86;72.31;101910.53;5036823;28;20130;-69
2021/04/07 08:29:05;;;;;;;13.40;3.35;;;;;;;4.93;72.69;101908.81;5037608;28;20065;-70
2021/04/07 08:31:32;;;;;;;18.85;3.38;;;;;;;5.00;72.24;101909.75;5036473;28;20372;-70
2021/04/07 08:34:04;;;;;;;11.70;4.35;;;;;;;5.08;71.94;101925.72;5036646;28;20444;-70
2021/04/07 08:36:32;;;;;;;19.15;3.90;;;;;;;5.03;71.39;101925.66;5034485;28;20451;-72
2021/04/07 08:39:01;;;;;;;16.80;4.72;;;;;;;5.11;71.03;101933.66;5038760;28;20057;-71
2021/04/07 08:41:28;;;;;;;24.88;4.18;;;;;;;5.01;70.36;101941.53;5035938;28;20706;-72
2021/04/07 08:43:55;;;;;;;20.92;4.78;;;;;;;5.14;72.00;101942.53;5041103;28;20355;-72
2021/04/07 08:46:24;;;;;;;16.02;4.30;;;;;;;5.07;69.90;101937.16;5035931;28;20057;-72
2021/04/07 08:48:52;;;;;;;23.95;5.82;;;;;;;4.98;68.93;101943.25;5035337;28;20061;-72
2021/04/07 08:51:22;;;;;;;16.75;4.07;;;;;;;5.15;71.59;101946.03;5034236;28;20052;-72
2021/04/07 08:53:50;;;;;;;12.88;3.67;;;;;;;5.25;70.09;101945.25;5031304;28;20472;-72
2021/04/07 08:56:25;;;;;;;19.00;4.78;;;;;;;5.26;69.97;101962.91;5034188;28;20057;-73
2021/04/07 08:58:53;;;;;;;13.15;3.53;;;;;;;5.16;70.10;101966.31;5050306;28;20056;-73
2021/04/07 09:01:26;;;;;;;15.20;3.30;;;;;;;5.00;69.68;101962.66;5031944;28;20052;-73
2021/04/07 09:04:08;;;;;;;17.88;3.47;;;;;;;5.00;70.27;101958.25;5036106;28;20474;-73
2021/04/07 09:06:37;;;;;;;19.40;3.53;;;;;;;5.15;70.25;101965.44;5033677;28;20429;-74
2021/04/07 09:09:06;;;;;;;12.65;4.18;;;;;;;5.27;69.65;101964.66;5031104;28;20065;-74
2021/04/07 09:11:34;;;;;;;18.73;3.47;;;;;;;5.53;68.17;101970.13;5032697;28;20582;-76
2021/04/07 09:14:04;;;;;;;17.58;3.75;;;;;;;5.53;66.35;101967.47;5032327;28;20057;-75
2021/04/07 09:16:34;;;;;;;15.75;3.58;;;;;;;5.52;67.56;101973.69;5034623;28;20061;-76
2021/04/07 09:19:13;;;;;;;15.32;3.50;;;;;;;5.33;66.40;101971.75;5047167;28;20100;-76
2021/04/07 09:21:41;;;;;;;13.68;3.10;;;;;;;5.31;66.95;101985.00;5036451;28;20057;-75
2021/04/07 09:24:16;;;;;;;16.17;4.32;;;;;;;5.30;67.20;101993.81;5047316;28;20076;-76
2021/04/07 09:26:46;;;;;;;19.02;3.83;;;;;;;5.33;65.79;101996.47;5041453;28;20060;-77
2021/04/07 09:29:14;;;;;;;9.35;2.92;;;;;;;5.47;66.79;101999.22;5038201;28;20065;-76
2021/04/07 09:31:41;;;;;;;15.82;3.15;;;;;;;5.57;65.13;101998.41;5056980;28;20064;-77
2021/04/07 09:34:12;;;;;;;8.38;2.47;;;;;;;5.50;61.66;102006.28;5045029;28;20064;-76
2021/04/07 09:36:43;;;;;;;9.05;2.80;;;;;;;5.41;60.58;102008.03;5037686;28;20061;-74
2021/04/07 09:39:11;;;;;;;12.10;2.85;;;;;;;5.31;61.64;102013.19;5039672;28;21051;-74
2021/04/07 09:41:40;;;;;;;9.73;3.35;;;;;;;5.31;63.08;102002.63;5039716;28;20363;-75
2021/04/07 09:44:09;;;;;;;13.48;3.05;;;;;;;5.30;63.03;102007.03;5039962;28;20061;-74
2021/04/07 09:46:36;;;;;;;17.33;4.15;;;;;;;5.31;63.39;102005.25;5036447;28;20068;-74
2021/04/07 09:49:05;;;;;;;8.68;2.40;;;;;;;5.31;64.84;102014.13;5043231;28;20068;-74
2021/04/07 09:51:33;;;;;;;19.15;4.13;;;;;;;5.22;63.56;102017.53;5038000;28;20053;-74
2021/04/07 09:54:15;;;;;;;12.57;3.63;;;;;;;5.19;64.69;102008.69;5045904;28;20052;-73
2021/04/07 09:56:54;;;;;;;12.63;3.08;;;;;;;5.32;64.91;102015.00;5036954;28;20063;-74
2021/04/07 09:59:31;;;;;;;14.77;2.85;;;;;;;5.31;62.89;102013.19;5046047;28;20053;-74
2021/04/07 10:01:58;;;;;;;22.50;3.50;;;;;;;5.34;64.50;102026.47;5043299;28;20315;-74
2021/04/07 10:04:26;;;;;;;15.98;3.45;;;;;;;5.19;67.87;102041.34;5047340;28;20061;-74
2021/04/07 10:06:53;;;;;;;16.58;3.55;;;;;;;4.99;70.57;102046.44;5037352;28;20067;-73
2021/04/07 10:09:28;;;;;;;9.48;2.92;;;;;;;4.78;72.07;102059.44;5046278;28;20053;-73
2021/04/07 10:11:56;;;;;;;11.05;2.40;;;;;;;4.33;74.91;102053.59;5037355;28;20529;-72
2021/04/07 10:14:24;;;;;;;15.35;3.17;;;;;;;4.58;76.76;102062.75;5047711;28;20052;-73
2021/04/07 10:16:51;;;;;;;17.77;4.32;;;;;;;4.45;78.19;102074.91;5038556;28;20143;-72
2021/04/07 10:19:18;;;;;;;13.18;2.88;;;;;;;4.41;77.85;102070.47;5045463;28;20162;-74
2021/04/07 10:21:46;;;;;;;14.30;3.22;;;;;;;4.37;77.76;102070.38;5036552;28;20056;-72
2021/04/07 10:24:15;;;;;;;14.73;3.05;;;;;;;4.55;78.23;102067.09;5045941;28;20373;-74
2021/04/07 10:26:44;;;;;;;11.75;2.97;;;;;;;4.67;75.91;102073.41;5040776;28;20158;-73
2021/04/07 10:29:22;;;;;;;12.15;2.85;;;;;;;4.74;73.08;102068.22;5041634;28;20061;-71
2021/04/07 10:31:53;;;;;;;9.30;2.50;;;;;;;4.77;70.30;102085.00;5035571;28;20064;-74
2021/04/07 10:34:29;;;;;;;15.68;2.85;;;;;;;5.00;67.67;102076.41;5043647;28;20076;-71
2021/04/07 10:36:57;;;;;;;12.25;3.38;;;;;;;5.32;68.09;102079.41;5030419;28;20428;-71
2021/04/07 10:39:24;;;;;;;12.65;2.88;;;;;;;5.29;68.86;102073.19;5042884;28;20080;-71
2021/04/07 10:41:54;;;;;;;12.60;3.40;;;;;;;5.61;71.36;102078.75;5034147;28;20471;-72
2021/04/07 10:44:23;;;;;;;15.82;3.75;;;;;;;5.60;71.03;102092.88;5043993;28;20529;-74
2021/04/07 10:46:50;;;;;;;16.35;3.47;;;;;;;5.56;71.84;102094.59;5036949;28;20060;-75
2021/04/07 10:49:18;;;;;;;21.65;4.05;;;;;;;5.38;72.88;102095.34;5040932;28;20061;-75
2021/04/07 10:51:45;;;;;;;11.20;3.58;;;;;;;5.08;72.51;102097.69;5042299;28;20057;-75
2021/04/07 10:54:12;;;;;;;9.32;3.22;;;;;;;5.23;72.54;102096.06;5041873;28;20060;-75
2021/04/07 10:56:39;;;;;;;14.07;3.63;;;;;;;5.51;71.32;102092.81;5039899;28;20057;-75
2021/04/07 10:59:11;;;;;;;16.20;3.88;;;;;;;5.89;69.85;102084.25;5037235;28;20466;-75
2021/04/07 11:01:39;;;;;;;11.93;3.00;;;;;;;6.16;69.60;102099.50;5041351;28;20054;-75
2021/04/07 11:04:11;;;;;;;11.27;2.97;;;;;;;5.91;64.38;102075.47;5035830;28;20068;-76
2021/04/07 11:06:38;;;;;;;8.80;2.28;;;;;;;6.52;62.85;102077.63;5039170;28;20063;-75
2021/04/07 11:09:05;;;;;;;14.38;2.85;;;;;;;6.58;64.89;102090.00;5036015;28;20061;-75
2021/04/07 11:11:33;;;;;;;12.20;3.08;;;;;;;6.35;69.27;102092.53;5040224;28;20060;-76
2021/04/07 11:14:00;;;;;;;10.18;2.92;;;;;;;6.57;65.47;102093.53;5037909;28;20061;-75
2021/04/07 11:16:31;;;;;;;12.48;3.40;;;;;;;6.73;62.35;102095.38;5042767;28;20347;-75
2021/04/07 11:18:59;;;;;;;13.45;2.67;;;;;;;6.15;62.65;102095.97;5036609;28;20294;-75
2021/04/07 11:21:26;;;;;;;11.73;2.53;;;;;;;6.18;63.35;102105.72;5042988;28;20490;-75
2021/04/07 11:23:52;;;;;;;9.55;2.58;;;;;;;5.66;63.75;102110.59;5035592;28;20411;-75
2021/04/07 11:26:19;;;;;;;7.35;2.22;;;;;;;5.90;65.98;102107.25;5038992;28;20347;-75
2021/04/07 11:28:46;;;;;;;10.07;2.05;;;;;;;6.02;63.88;102117.97;5037078;28;20068;-75
2021/04/07 11:31:14;;;;;;;15.15;3.60;;;;;;;6.64;65.86;102094.44;5037735;28;20115;-75
2021/04/07 11:33:46;;;;;;;11.95;3.00;;;;;;;6.56;63.67;102112.13;5038616;28;20067;-76
2021/04/07 11:36:51;;;;;;;16.98;4.25;;;;;;;5.89;63.40;102109.03;5038280;28;20061;-75